createdAt,value
2019-05-22T00:01:55.131Z,0.50
2019-05-22T00:04:26.577Z,0.40
2019-05-22T00:06:59.138Z,0.40
2019-05-22T00:09:30.864Z,0.30
2019-05-22T00:14:31.504Z,0.30
2019-05-22T00:17:03.170Z,0.40
2019-05-22T00:19:33.919Z,0.37
2019-05-22T00:22:05.644Z,0.50
2019-05-22T00:24:37.184Z,0.40
2019-05-22T00:27:06.891Z,0.30
2019-05-22T00:29:36.610Z,0.40
2019-05-22T00:32:07.931Z,0.40
2019-05-22T00:34:40.108Z,0.35
2019-05-22T00:37:11.774Z,0.30
2019-05-22T00:39:43.624Z,0.30
2019-05-22T00:44:47.046Z,0.30
2019-05-22T00:47:17.998Z,0.30
2019-05-22T00:49:49.719Z,0.23
2019-05-22T00:52:22.533Z,0.20
2019-05-22T00:54:55.444Z,0.30
2019-05-22T00:57:28.369Z,0.30
2019-05-22T00:59:59.860Z,0.30
2019-05-22T01:02:31.647Z,0.30
2019-05-22T01:05:02.087Z,0.40
2019-05-22T01:07:35.345Z,0.40
2019-05-22T01:10:08.971Z,0.50
2019-05-22T01:12:40.503Z,0.50
2019-05-22T01:15:12.022Z,0.60
2019-05-22T01:17:41.899Z,0.72
2019-05-22T01:20:14.706Z,0.60
2019-05-22T01:22:47.483Z,0.60
2019-05-22T01:25:20.976Z,0.70
2019-05-22T01:27:51.964Z,0.70
2019-05-22T01:30:24.435Z,0.72
2019-05-22T01:32:55.599Z,0.70
2019-05-22T01:35:28.656Z,0.60
2019-05-22T01:37:59.972Z,0.68
2019-05-22T01:40:32.748Z,0.72
2019-05-22T01:43:03.590Z,0.78
2019-05-22T01:45:33.879Z,0.70
2019-05-22T01:48:06.529Z,0.78
2019-05-22T01:50:38.782Z,0.78
2019-05-22T01:53:08.536Z,0.70
2019-05-22T01:55:38.589Z,0.80
2019-05-22T01:58:08.948Z,0.65
2019-05-22T02:00:39.585Z,0.80
2019-05-22T02:03:11.447Z,0.75
2019-05-22T02:08:15.573Z,0.90
2019-05-22T02:10:47.214Z,0.72
2019-05-22T02:13:20.428Z,0.90
2019-05-22T02:15:50.180Z,1.10
2019-05-22T02:18:23.180Z,1.17
2019-05-22T02:20:52.846Z,1.10
2019-05-22T02:23:23.581Z,1.25
2019-05-22T02:25:53.289Z,1.25
2019-05-22T02:28:24.608Z,1.50
2019-05-22T02:30:56.206Z,1.60
2019-05-22T02:33:27.274Z,1.50
2019-05-22T02:35:57.359Z,1.65
2019-05-22T02:38:27.135Z,1.98
2019-05-22T02:40:59.800Z,1.70
2019-05-22T02:43:31.103Z,1.75
2019-05-22T02:46:02.089Z,1.80
2019-05-22T02:48:34.543Z,1.90
2019-05-22T02:51:04.679Z,1.72
2019-05-22T02:53:36.337Z,2.10
2019-05-22T02:56:08.769Z,1.80
2019-05-22T02:58:39.370Z,1.90
2019-05-22T03:01:10.373Z,1.70
2019-05-22T03:03:41.288Z,1.67
2019-05-22T03:06:12.834Z,1.63
2019-05-22T03:08:46.040Z,1.67
2019-05-22T03:11:16.144Z,1.60
2019-05-22T03:13:49.007Z,1.60
2019-05-22T03:16:18.750Z,1.40
2019-05-22T03:19:07.589Z,1.55
2019-05-22T03:21:20.379Z,1.52
2019-05-22T03:23:51.569Z,1.50
2019-05-22T03:26:24.412Z,1.50
2019-05-22T03:28:54.195Z,1.57
2019-05-22T03:31:24.557Z,1.52
2019-05-22T03:33:54.296Z,2.10
2019-05-22T03:36:24.020Z,1.70
2019-05-22T03:38:55.616Z,1.87
2019-05-22T03:41:25.898Z,1.75
2019-05-22T03:43:58.599Z,2.10
2019-05-22T03:46:32.722Z,1.70
2019-05-22T03:49:03.909Z,2.00
2019-05-22T03:51:35.253Z,2.02
2019-05-22T03:54:05.592Z,1.35
2019-05-22T03:56:38.609Z,2.15
2019-05-22T03:59:09.011Z,2.08
2019-05-22T04:01:39.363Z,2.30
2019-05-22T04:04:10.082Z,2.33
2019-05-22T04:06:41.443Z,2.37
2019-05-22T04:09:14.071Z,2.22
2019-05-22T04:11:50.058Z,2.45
2019-05-22T04:14:26.576Z,2.80
2019-05-22T04:16:57.512Z,2.47
2019-05-22T04:19:47.264Z,2.65
2019-05-22T04:22:04.810Z,2.52
2019-05-22T04:24:34.754Z,2.80
2019-05-22T04:27:06.102Z,2.52
2019-05-22T04:29:40.582Z,2.62
2019-05-22T04:32:13.324Z,2.80
2019-05-22T04:34:44.534Z,2.83
2019-05-22T04:37:15.833Z,2.72
2019-05-22T04:39:46.377Z,2.95
2019-05-22T04:42:17.448Z,2.70
2019-05-22T04:44:50.219Z,3.00
2019-05-22T04:47:20.050Z,3.33
2019-05-22T04:50:06.793Z,3.83
2019-05-22T04:52:27.292Z,3.98
2019-05-22T04:54:57.285Z,3.80
2019-05-22T04:57:27.482Z,3.87
2019-05-22T04:59:57.007Z,4.65
2019-05-22T05:02:28.051Z,4.60
2019-05-22T05:04:59.315Z,5.05
2019-05-22T05:07:29.897Z,5.87
2019-05-22T05:09:59.511Z,5.80
2019-05-22T05:12:29.882Z,6.70
2019-05-22T05:14:59.516Z,6.85
2019-05-22T05:17:29.056Z,7.00
2019-05-22T05:19:59.064Z,7.40
2019-05-22T05:22:31.731Z,6.22
2019-05-22T05:25:01.877Z,6.33
2019-05-22T05:27:33.368Z,6.90
2019-05-22T05:30:03.753Z,5.80
2019-05-22T05:32:34.004Z,6.28
2019-05-22T05:35:07.404Z,5.53
2019-05-22T05:37:38.340Z,6.25
2019-05-22T05:40:09.478Z,6.27
2019-05-22T05:42:39.776Z,7.35
2019-05-22T05:45:13.548Z,7.10
2019-05-22T05:47:43.997Z,6.80
2019-05-22T05:50:15.158Z,7.30
2019-05-22T05:52:45.238Z,7.62
2019-05-22T05:55:16.146Z,7.65
2019-05-22T05:57:48.626Z,8.13
2019-05-22T06:00:20.159Z,7.65
2019-05-22T06:02:56.576Z,7.90
2019-05-22T06:05:23.525Z,8.58
2019-05-22T06:07:53.495Z,8.40
2019-05-22T06:10:25.518Z,8.88
2019-05-22T06:12:55.179Z,9.53
2019-05-22T06:15:28.693Z,9.85
2019-05-22T06:18:02.425Z,10.40
2019-05-22T06:20:32.591Z,10.63
2019-05-22T06:23:06.876Z,11.40
2019-05-22T06:25:37.791Z,11.40
2019-05-22T06:28:07.513Z,10.63
2019-05-22T06:30:40.186Z,12.13
2019-05-22T06:33:11.667Z,12.63
2019-05-22T06:35:43.489Z,13.78
2019-05-22T06:38:16.937Z,13.83
2019-05-22T06:40:48.278Z,14.15
2019-05-22T06:43:19.550Z,13.93
2019-05-22T06:45:49.720Z,15.13
2019-05-22T06:48:25.889Z,14.98
2019-05-22T06:50:57.294Z,14.70
2019-05-22T06:53:27.004Z,15.48
2019-05-22T06:55:56.728Z,15.40
2019-05-22T06:58:26.869Z,15.40
2019-05-22T07:00:56.721Z,15.48
2019-05-22T07:03:26.370Z,14.65
2019-05-22T07:05:56.378Z,15.72
2019-05-22T07:08:26.150Z,15.85
2019-05-22T07:10:56.386Z,15.80
2019-05-22T07:13:26.714Z,15.63
2019-05-22T07:15:59.161Z,16.82
2019-05-22T07:18:32.822Z,16.65
2019-05-22T07:21:03.748Z,16.05
2019-05-22T07:23:35.202Z,16.03
2019-05-22T07:26:06.284Z,16.30
2019-05-22T07:28:36.275Z,16.07
2019-05-22T07:31:06.802Z,15.35
2019-05-22T07:33:36.477Z,15.58
2019-05-22T07:36:10.014Z,15.68
2019-05-22T07:38:37.915Z,14.40
2019-05-22T07:41:08.509Z,14.15
2019-05-22T07:43:41.347Z,14.70
2019-05-22T07:46:09.535Z,15.20
2019-05-22T07:48:46.390Z,15.23
2019-05-22T07:51:58.883Z,14.23
2019-05-22T07:54:22.281Z,15.43
2019-05-22T07:56:52.632Z,14.55
2019-05-22T07:59:22.480Z,14.68
2019-05-22T08:01:52.268Z,15.08
2019-05-22T08:04:23.900Z,14.33
2019-05-22T08:06:54.178Z,14.38
2019-05-22T08:09:24.399Z,15.50
2019-05-22T08:11:54.371Z,14.78
2019-05-22T08:14:24.732Z,15.90
2019-05-22T08:16:58.711Z,15.88
2019-05-22T08:19:28.493Z,14.70
2019-05-22T08:22:07.399Z,15.50
2019-05-22T08:24:31.317Z,15.05
2019-05-22T08:27:02.947Z,16.05
2019-05-22T08:29:32.966Z,15.63
2019-05-22T08:32:04.427Z,15.93
2019-05-22T08:34:34.328Z,15.60
2019-05-22T08:37:05.974Z,14.80
2019-05-22T08:39:37.307Z,15.98
2019-05-22T08:42:09.835Z,15.85
2019-05-22T08:44:41.850Z,15.78
2019-05-22T08:47:12.907Z,15.53
2019-05-22T08:49:42.804Z,15.18
2019-05-22T08:52:23.182Z,14.78
2019-05-22T08:54:47.483Z,14.75
2019-05-22T08:59:48.521Z,13.23
2019-05-22T09:02:18.415Z,14.15
2019-05-22T09:04:48.465Z,13.80
2019-05-22T09:07:18.263Z,14.35
2019-05-22T09:09:57.885Z,11.63
2019-05-22T09:12:29.806Z,13.40
2019-05-22T09:14:59.505Z,13.32
2019-05-22T09:17:30.035Z,12.80
2019-05-22T09:20:00.328Z,13.88
2019-05-22T09:22:40.058Z,13.08
2019-05-22T09:25:03.289Z,12.10
2019-05-22T09:27:34.289Z,12.95
2019-05-22T09:30:06.114Z,12.80
2019-05-22T09:35:05.956Z,12.30
2019-05-22T09:37:36.115Z,12.58
2019-05-22T09:40:07.928Z,12.58
2019-05-22T09:45:08.409Z,11.30
2019-05-22T09:47:40.289Z,11.60
2019-05-22T09:50:11.900Z,11.88
2019-05-22T09:52:56.425Z,11.83
2019-05-22T09:55:16.625Z,12.53
2019-05-22T09:57:46.500Z,13.22
2019-05-22T10:00:19.896Z,11.97
2019-05-22T10:02:49.852Z,11.95
2019-05-22T10:05:20.241Z,11.93
2019-05-22T10:08:00.311Z,12.93
2019-05-22T10:10:22.150Z,11.60
2019-05-22T10:12:51.839Z,13.15
2019-05-22T10:15:22.280Z,12.25
2019-05-22T10:17:52.135Z,11.75
2019-05-22T10:20:23.556Z,12.78
2019-05-22T10:22:53.735Z,13.68
2019-05-22T10:25:23.716Z,14.20
2019-05-22T10:27:53.331Z,13.45
2019-05-22T10:30:24.842Z,13.93
2019-05-22T10:32:54.614Z,13.68
2019-05-22T10:35:26.066Z,13.98
2019-05-22T10:37:56.899Z,14.00
2019-05-22T10:40:26.757Z,14.47
2019-05-22T10:42:57.487Z,14.78
2019-05-22T10:45:27.777Z,15.30
2019-05-22T10:47:58.301Z,15.38
2019-05-22T10:50:28.793Z,15.90
2019-05-22T10:52:58.862Z,15.35
2019-05-22T10:55:29.314Z,15.90
2019-05-22T10:57:59.550Z,15.40
2019-05-22T11:00:29.877Z,15.28
2019-05-22T11:02:59.669Z,15.20
2019-05-22T11:05:29.865Z,15.68
2019-05-22T11:07:59.865Z,16.57
2019-05-22T11:10:30.072Z,15.83
2019-05-22T11:13:00.261Z,14.70
2019-05-22T11:15:29.927Z,14.23
2019-05-22T11:17:59.800Z,14.40
2019-05-22T11:20:30.198Z,15.43
2019-05-22T11:22:59.900Z,14.30
2019-05-22T11:25:29.510Z,14.35
2019-05-22T11:27:59.319Z,14.78
2019-05-22T11:30:29.676Z,13.85
2019-05-22T11:33:01.787Z,14.43
2019-05-22T11:35:33.254Z,14.43
2019-05-22T11:38:03.075Z,13.68
2019-05-22T11:40:33.224Z,14.05
2019-05-22T11:43:03.583Z,13.62
2019-05-22T11:45:33.313Z,14.60
2019-05-22T11:48:03.749Z,14.45
2019-05-22T11:50:34.696Z,13.83
2019-05-22T11:53:04.834Z,13.50
2019-05-22T11:55:45.165Z,13.00
2019-05-22T11:58:08.016Z,13.15
2019-05-22T12:00:37.677Z,12.98
2019-05-22T12:03:07.949Z,13.50
2019-05-22T12:05:38.138Z,14.38
2019-05-22T12:08:08.272Z,14.35
2019-05-22T12:10:38.816Z,13.50
2019-05-22T12:13:09.687Z,12.50
2019-05-22T12:15:39.486Z,12.77
2019-05-22T12:18:11.962Z,12.18
2019-05-22T12:20:42.080Z,11.48
2019-05-22T12:23:11.813Z,12.13
2019-05-22T12:25:41.925Z,11.63
2019-05-22T12:28:11.708Z,11.55
2019-05-22T12:30:41.651Z,11.68
2019-05-22T12:33:13.696Z,11.38
2019-05-22T12:35:44.240Z,11.97
2019-05-22T12:38:15.389Z,13.18
2019-05-22T12:40:45.626Z,12.68
2019-05-22T12:43:16.355Z,12.07
2019-05-22T12:45:46.223Z,11.88
2019-05-22T12:48:16.022Z,13.53
2019-05-22T12:50:45.844Z,14.05
2019-05-22T12:53:16.934Z,13.43
2019-05-22T12:55:46.988Z,13.95
2019-05-22T12:58:16.639Z,12.98
2019-05-22T13:00:46.660Z,12.25
2019-05-22T13:03:18.353Z,12.70
2019-05-22T13:05:50.006Z,12.68
2019-05-22T13:08:23.831Z,13.03
2019-05-22T13:10:54.867Z,13.30
2019-05-22T13:13:27.066Z,13.18
2019-05-22T13:15:59.714Z,13.50
2019-05-22T13:18:33.139Z,14.03
2019-05-22T13:21:05.733Z,13.62
2019-05-22T13:23:39.015Z,14.60
2019-05-22T13:26:10.722Z,14.38
2019-05-22T13:28:43.390Z,13.75
2019-05-22T13:31:13.831Z,14.20
2019-05-22T13:33:44.831Z,14.07
2019-05-22T13:36:16.477Z,13.28
2019-05-22T13:38:47.453Z,13.45
2019-05-22T13:41:17.668Z,13.07
2019-05-22T13:43:48.067Z,13.28
2019-05-22T13:46:19.337Z,13.62
2019-05-22T13:48:49.490Z,14.05
2019-05-22T13:51:19.410Z,13.58
2019-05-22T13:53:49.837Z,14.28
2019-05-22T13:56:19.677Z,13.90
2019-05-22T13:58:49.897Z,13.72
2019-05-22T14:01:21.818Z,13.45
2019-05-22T14:03:51.716Z,12.75
2019-05-22T14:06:22.066Z,13.53
2019-05-22T14:08:52.102Z,12.98
2019-05-22T14:11:22.634Z,13.38
2019-05-22T14:13:53.433Z,13.93
2019-05-22T14:16:23.347Z,13.78
2019-05-22T14:18:53.047Z,13.55
2019-05-22T14:21:22.900Z,13.22
2019-05-22T14:23:52.566Z,12.20
2019-05-22T14:26:22.665Z,12.82
2019-05-22T14:28:52.586Z,12.58
2019-05-22T14:31:22.399Z,12.73
2019-05-22T14:33:52.520Z,13.35
2019-05-22T14:36:23.200Z,13.98
2019-05-22T14:38:54.099Z,13.10
2019-05-22T14:41:25.458Z,14.07
2019-05-22T14:43:55.258Z,13.38
2019-05-22T14:46:25.395Z,13.93
2019-05-22T14:49:05.836Z,12.60
2019-05-22T14:51:35.640Z,14.07
2019-05-22T14:54:08.199Z,14.63
2019-05-22T14:56:38.154Z,14.15
2019-05-22T14:59:07.859Z,14.93
2019-05-22T15:01:37.756Z,15.45
2019-05-22T15:04:07.561Z,14.53
2019-05-22T15:06:38.383Z,15.58
2019-05-22T15:09:10.586Z,15.73
2019-05-22T15:11:42.035Z,15.23
2019-05-22T15:14:11.718Z,14.73
2019-05-22T15:16:41.845Z,14.47
2019-05-22T15:19:12.072Z,14.38
2019-05-22T15:21:42.020Z,14.75
2019-05-22T15:24:12.765Z,15.05
2019-05-22T15:26:43.779Z,15.53
2019-05-22T15:29:15.620Z,14.73
2019-05-22T15:34:15.535Z,13.38
2019-05-22T15:36:46.215Z,14.25
2019-05-22T15:39:20.431Z,14.05
2019-05-22T15:41:50.201Z,14.28
2019-05-22T15:44:20.819Z,13.45
2019-05-22T15:46:51.094Z,14.30
2019-05-22T15:49:21.305Z,13.20
2019-05-22T15:51:52.277Z,13.90
2019-05-22T15:54:24.178Z,16.60
2019-05-22T15:56:55.104Z,14.53
2019-05-22T15:59:25.979Z,15.83
2019-05-22T16:01:56.716Z,15.20
2019-05-22T16:04:28.480Z,14.00
2019-05-22T16:09:29.439Z,13.00
2019-05-22T16:11:59.325Z,12.98
2019-05-22T16:14:31.619Z,12.55
2019-05-22T16:17:02.249Z,13.48
2019-05-22T16:19:32.923Z,12.30
2019-05-22T16:22:05.646Z,12.53
2019-05-22T16:24:36.182Z,12.37
2019-05-22T16:27:10.249Z,11.33
2019-05-22T16:29:40.690Z,12.10
2019-05-22T16:32:12.317Z,12.40
2019-05-22T16:34:42.334Z,13.00
2019-05-22T16:37:13.538Z,12.50
2019-05-22T16:39:43.128Z,11.83
2019-05-22T16:42:13.057Z,12.80
2019-05-22T16:44:42.944Z,12.18
2019-05-22T16:47:13.366Z,11.75
2019-05-22T16:49:43.336Z,11.50
2019-05-22T16:52:14.416Z,11.22
2019-05-22T16:54:45.909Z,11.10
2019-05-22T16:57:17.317Z,10.78
2019-05-22T16:59:47.748Z,11.28
2019-05-22T17:02:19.109Z,10.13
2019-05-22T17:04:49.649Z,9.48
2019-05-22T17:07:28.238Z,9.40
2019-05-22T17:09:59.478Z,8.70
2019-05-22T17:12:30.437Z,8.95
2019-05-22T17:15:02.425Z,7.67
2019-05-22T17:17:32.354Z,7.85
2019-05-22T17:20:05.305Z,7.40
2019-05-22T17:22:34.933Z,7.30
2019-05-22T17:25:09.040Z,7.15
2019-05-22T17:27:41.046Z,7.08
2019-05-22T17:30:12.739Z,7.22
2019-05-22T17:32:43.906Z,7.10
2019-05-22T17:35:15.991Z,6.70
2019-05-22T17:37:46.227Z,6.25
2019-05-22T17:40:19.117Z,5.95
2019-05-22T17:42:51.436Z,5.87
2019-05-22T17:45:28.429Z,6.05
2019-05-22T17:47:59.275Z,5.50
2019-05-22T17:50:29.785Z,5.78
2019-05-22T17:53:00.696Z,5.83
2019-05-22T17:55:30.291Z,5.47
2019-05-22T17:58:00.555Z,5.65
2019-05-22T18:00:31.957Z,5.65
2019-05-22T18:03:02.148Z,5.72
2019-05-22T18:05:33.751Z,6.10
2019-05-22T18:08:04.844Z,6.05
2019-05-22T18:10:40.453Z,5.53
2019-05-22T18:13:10.471Z,5.40
2019-05-22T18:15:40.656Z,5.25
2019-05-22T18:18:11.591Z,5.10
2019-05-22T18:20:43.994Z,4.83
2019-05-22T18:25:44.312Z,5.05
2019-05-22T18:28:14.591Z,5.25
2019-05-22T18:30:44.772Z,4.55
2019-05-22T18:33:14.493Z,5.30
2019-05-22T18:35:44.228Z,5.03
2019-05-22T18:38:13.972Z,5.30
2019-05-22T18:40:43.912Z,5.67
2019-05-22T18:43:13.612Z,5.25
2019-05-22T18:45:43.481Z,5.60
2019-05-22T18:48:13.484Z,4.90
2019-05-22T18:50:43.451Z,4.60
2019-05-22T18:53:13.303Z,4.87
2019-05-22T18:55:42.992Z,5.17
2019-05-22T18:58:12.933Z,4.78
2019-05-22T19:00:42.706Z,5.92
2019-05-22T19:03:13.308Z,5.22
2019-05-22T19:05:43.975Z,4.53
2019-05-22T19:08:13.703Z,4.70
2019-05-22T19:10:43.468Z,4.22
2019-05-22T19:13:14.688Z,4.58
2019-05-22T19:15:44.813Z,4.50
2019-05-22T19:18:14.596Z,4.50
2019-05-22T19:20:44.800Z,4.33
2019-05-22T19:23:15.072Z,4.70
2019-05-22T19:25:44.691Z,4.60
2019-05-22T19:28:14.457Z,4.78
2019-05-22T19:30:44.175Z,5.30
2019-05-22T19:33:14.990Z,4.60
2019-05-22T19:35:44.709Z,4.45
2019-05-22T19:38:14.423Z,5.00
2019-05-22T19:40:44.185Z,4.72
2019-05-22T19:43:14.038Z,4.10
2019-05-22T19:45:44.067Z,4.33
2019-05-22T19:48:14.486Z,4.60
2019-05-22T19:50:45.894Z,4.15
2019-05-22T19:53:19.193Z,4.78
2019-05-22T19:55:52.159Z,4.37
2019-05-22T19:58:24.017Z,4.65
2019-05-22T20:00:53.930Z,5.08
2019-05-22T20:03:23.986Z,4.33
2019-05-22T20:05:54.175Z,4.28
2019-05-22T20:08:24.265Z,4.42
2019-05-22T20:10:55.617Z,3.95
2019-05-22T20:13:25.380Z,4.03
2019-05-22T20:15:55.399Z,4.20
2019-05-22T20:18:25.139Z,4.70
2019-05-22T20:20:54.645Z,4.17
2019-05-22T20:23:35.459Z,3.75
2019-05-22T20:28:26.856Z,3.85
2019-05-22T20:30:57.789Z,3.62
2019-05-22T20:33:27.422Z,3.80
2019-05-22T20:35:57.132Z,4.12
2019-05-22T20:38:27.769Z,3.77
2019-05-22T20:40:57.403Z,3.45
2019-05-22T20:43:28.015Z,3.47
2019-05-22T20:45:59.571Z,3.65
2019-05-22T20:48:30.198Z,4.45
2019-05-22T20:51:01.194Z,3.50
2019-05-22T20:53:32.991Z,3.60
2019-05-22T20:58:32.582Z,3.10
2019-05-22T21:01:10.380Z,3.35
2019-05-22T21:03:44.135Z,3.47
2019-05-22T21:06:15.455Z,3.60
2019-05-22T21:08:46.565Z,4.37
2019-05-22T21:11:18.273Z,4.50
2019-05-22T21:13:49.201Z,5.70
2019-05-22T21:16:21.018Z,5.50
2019-05-22T21:18:53.218Z,5.22
2019-05-22T21:21:25.302Z,4.28
2019-05-22T21:24:09.466Z,3.95
2019-05-22T21:26:26.577Z,3.62
2019-05-22T21:28:57.246Z,5.17
2019-05-22T21:31:27.352Z,5.05
2019-05-22T21:33:57.399Z,4.65
2019-05-22T21:36:28.012Z,4.20
2019-05-22T21:38:58.281Z,5.00
2019-05-22T21:41:28.685Z,3.33
2019-05-22T21:43:58.973Z,3.58
2019-05-22T21:46:28.553Z,4.60
2019-05-22T21:48:59.829Z,4.53
2019-05-22T21:51:29.786Z,5.60
2019-05-22T21:53:59.425Z,6.05
2019-05-22T21:56:29.965Z,5.72
2019-05-22T21:58:59.618Z,5.10
2019-05-22T22:01:33.263Z,4.92
2019-05-22T22:04:06.653Z,3.17
2019-05-22T22:06:36.309Z,4.70
2019-05-22T22:09:08.435Z,4.47
2019-05-22T22:11:38.668Z,4.15
2019-05-22T22:14:09.460Z,5.60
2019-05-22T22:16:41.302Z,5.25
2019-05-22T22:21:40.767Z,5.92
2019-05-22T22:24:11.070Z,6.65
2019-05-22T22:26:40.983Z,7.55
2019-05-22T22:29:11.171Z,7.72
2019-05-22T22:31:42.059Z,7.90
2019-05-22T22:34:15.240Z,7.90
2019-05-22T22:36:46.003Z,7.92
2019-05-22T22:39:17.656Z,8.55
2019-05-22T22:41:48.181Z,8.38
2019-05-22T22:44:19.023Z,7.75
2019-05-22T22:46:50.675Z,8.65
2019-05-22T22:49:21.480Z,8.48
2019-05-22T22:51:53.353Z,8.98
2019-05-22T22:56:53.503Z,8.98
2019-05-22T22:59:23.545Z,9.18
2019-05-22T23:01:56.197Z,8.30
2019-05-22T23:04:28.597Z,8.13
2019-05-22T23:07:01.282Z,9.25
2019-05-22T23:09:32.102Z,8.88
2019-05-22T23:12:03.939Z,8.75
2019-05-22T23:17:05.696Z,8.40
2019-05-22T23:19:35.987Z,7.55
2019-05-22T23:22:05.720Z,7.72
2019-05-22T23:24:38.299Z,8.13
2019-05-22T23:27:08.709Z,8.90
2019-05-22T23:29:38.935Z,9.03
2019-05-22T23:32:09.550Z,9.65
2019-05-22T23:34:40.715Z,9.48
2019-05-22T23:37:10.869Z,8.95
2019-05-22T23:39:40.983Z,9.13
2019-05-22T23:42:14.365Z,8.95
2019-05-22T23:44:46.280Z,10.13
2019-05-22T23:47:15.951Z,8.83
2019-05-22T23:49:46.038Z,9.55
2019-05-22T23:52:17.614Z,9.70
2019-05-22T23:54:49.180Z,8.85
2019-05-22T23:57:20.173Z,9.55
2019-05-22T23:59:52.598Z,9.47
